createdAt,value
2022-09-28T00:00:42.458Z,9.73
2022-09-28T00:03:09.460Z,9.76
2022-09-28T00:05:36.081Z,9.75
2022-09-28T00:08:02.873Z,9.72
2022-09-28T00:10:29.724Z,9.69
2022-09-28T00:12:56.359Z,9.69
2022-09-28T00:15:24.703Z,9.73
2022-09-28T00:17:51.356Z,9.79
2022-09-28T00:20:19.780Z,9.75
2022-09-28T00:22:46.779Z,9.71
2022-09-28T00:25:13.369Z,9.69
2022-09-28T00:27:40.298Z,9.67
2022-09-28T00:30:08.252Z,9.69
2022-09-28T00:32:35.194Z,9.75
2022-09-28T00:35:01.898Z,9.73
2022-09-28T00:37:28.578Z,9.71
2022-09-28T00:39:55.427Z,9.66
2022-09-28T00:42:24.377Z,9.63
2022-09-28T00:44:56.188Z,9.59
2022-09-28T00:47:51.568Z,9.55
2022-09-28T00:50:29.946Z,9.52
2022-09-28T00:53:15.467Z,9.55
2022-09-28T00:56:11.474Z,9.58
2022-09-28T00:58:43.766Z,9.59
2022-09-28T01:01:10.465Z,9.56
2022-09-28T01:03:37.775Z,9.60
2022-09-28T01:06:07.484Z,9.54
2022-09-28T01:08:35.586Z,9.52
2022-09-28T01:11:02.386Z,9.56
2022-09-28T01:13:32.186Z,9.70
2022-09-28T01:16:22.003Z,9.68
2022-09-28T01:19:39.816Z,9.62
2022-09-28T01:22:54.298Z,9.56
2022-09-28T01:25:45.688Z,9.46
2022-09-28T01:28:18.481Z,9.39
2022-09-28T01:31:08.635Z,9.33
2022-09-28T01:33:58.748Z,9.32
2022-09-28T01:36:30.920Z,9.16
2022-09-28T01:39:05.962Z,9.19
2022-09-28T01:41:36.734Z,9.14
2022-09-28T01:44:06.364Z,9.22
2022-09-28T01:46:44.576Z,9.36
2022-09-28T01:49:14.935Z,9.35
2022-09-28T01:51:47.625Z,9.42
2022-09-28T01:54:15.046Z,9.39
2022-09-28T01:56:52.255Z,9.40
2022-09-28T01:59:24.726Z,9.45
2022-09-28T02:02:13.901Z,9.45
2022-09-28T02:04:49.483Z,9.52
2022-09-28T02:07:45.694Z,9.46
2022-09-28T02:10:24.691Z,9.48
2022-09-28T02:13:04.771Z,9.50
2022-09-28T02:15:40.661Z,9.53
2022-09-28T02:18:07.996Z,9.49
2022-09-28T02:20:38.248Z,9.49
2022-09-28T02:23:05.094Z,9.42
2022-09-28T02:25:40.417Z,9.42
2022-09-28T02:28:12.106Z,9.40
2022-09-28T02:30:40.509Z,9.32
2022-09-28T02:33:22.674Z,9.28
2022-09-28T02:35:49.554Z,9.19
2022-09-28T02:38:16.394Z,9.17
2022-09-28T02:40:57.718Z,9.12
2022-09-28T02:43:31.066Z,9.11
2022-09-28T02:46:11.858Z,9.05
2022-09-28T02:49:20.481Z,9.01
2022-09-28T02:52:28.957Z,8.92
2022-09-28T02:55:16.900Z,8.87
2022-09-28T02:58:22.007Z,8.79
2022-09-28T03:01:34.967Z,8.69
2022-09-28T03:04:26.987Z,8.61
2022-09-28T03:07:01.340Z,8.58
2022-09-28T03:09:59.966Z,8.62
2022-09-28T03:12:29.319Z,8.60
2022-09-28T03:15:12.297Z,8.65
2022-09-28T03:17:39.076Z,8.66
2022-09-28T03:20:06.616Z,8.66
2022-09-28T03:22:33.241Z,8.63
2022-09-28T03:24:59.780Z,8.65
2022-09-28T03:27:26.349Z,8.65
2022-09-28T03:29:53.145Z,8.67
2022-09-28T03:32:19.919Z,8.67
2022-09-28T03:34:46.461Z,8.72
2022-09-28T03:37:13.135Z,8.69
2022-09-28T03:39:39.758Z,8.49
2022-09-28T03:42:06.580Z,8.44
2022-09-28T03:44:33.410Z,8.44
2022-09-28T03:46:59.997Z,8.50
2022-09-28T03:49:26.587Z,8.61
2022-09-28T03:51:53.239Z,8.65
2022-09-28T03:54:19.998Z,8.68
2022-09-28T03:56:46.782Z,8.74
2022-09-28T03:59:13.463Z,8.72
2022-09-28T04:01:40.163Z,8.65
2022-09-28T04:04:06.789Z,8.48
2022-09-28T04:06:33.875Z,8.29
2022-09-28T04:09:00.610Z,8.27
2022-09-28T04:11:28.430Z,8.23
2022-09-28T04:14:01.635Z,8.22
2022-09-28T04:16:28.436Z,8.20
2022-09-28T04:18:55.251Z,8.14
2022-09-28T04:21:22.084Z,8.09
2022-09-28T04:23:49.024Z,8.06
2022-09-28T04:26:22.744Z,8.01
2022-09-28T04:29:08.297Z,8.01
2022-09-28T04:31:49.647Z,8.01
2022-09-28T04:34:21.522Z,8.01
2022-09-28T04:36:49.024Z,7.99
2022-09-28T04:39:17.785Z,7.90
2022-09-28T04:41:47.261Z,7.85
2022-09-28T04:44:13.876Z,7.82
2022-09-28T04:46:40.430Z,7.75
2022-09-28T04:49:07.022Z,7.78
2022-09-28T04:51:33.728Z,7.78
2022-09-28T04:54:00.561Z,7.93
2022-09-28T04:56:27.399Z,7.91
2022-09-28T04:58:53.970Z,7.89
2022-09-28T05:01:23.630Z,7.87
2022-09-28T05:03:51.189Z,7.88
2022-09-28T05:06:18.049Z,7.91
2022-09-28T05:08:46.940Z,8.01
2022-09-28T05:11:14.930Z,7.99
2022-09-28T05:13:45.145Z,7.97
2022-09-28T05:16:14.061Z,7.88
2022-09-28T05:18:40.849Z,7.82
2022-09-28T05:21:15.570Z,7.82
2022-09-28T05:23:46.999Z,7.87
2022-09-28T05:26:14.245Z,7.93
2022-09-28T05:28:41.070Z,7.93
2022-09-28T05:31:07.713Z,7.93
2022-09-28T05:33:34.821Z,8.00
2022-09-28T05:36:02.047Z,8.09
2022-09-28T05:38:29.967Z,8.17
2022-09-28T05:40:56.837Z,8.24
2022-09-28T05:43:23.567Z,8.31
2022-09-28T05:45:55.108Z,8.33
2022-09-28T05:48:22.738Z,8.28
2022-09-28T05:50:52.797Z,8.24
2022-09-28T05:53:19.894Z,8.27
2022-09-28T05:55:46.550Z,8.28
2022-09-28T05:58:13.410Z,8.25
2022-09-28T06:00:40.194Z,8.23
2022-09-28T06:03:10.659Z,8.15
2022-09-28T06:05:39.483Z,8.19
2022-09-28T06:08:08.451Z,8.29
2022-09-28T06:10:35.378Z,8.33
2022-09-28T06:13:02.132Z,8.44
2022-09-28T06:15:30.847Z,8.56
2022-09-28T06:18:02.437Z,8.60
2022-09-28T06:20:31.791Z,8.57
2022-09-28T06:22:58.446Z,8.54
2022-09-28T06:25:27.624Z,8.55
2022-09-28T06:27:59.231Z,8.55
2022-09-28T06:30:27.568Z,8.51
2022-09-28T06:33:00.217Z,8.50
2022-09-28T06:35:27.943Z,8.43
2022-09-28T06:37:54.590Z,8.41
2022-09-28T06:40:21.678Z,8.43
2022-09-28T06:42:59.333Z,8.43
2022-09-28T06:45:27.039Z,8.49
2022-09-28T06:47:59.267Z,8.51
2022-09-28T06:50:28.110Z,8.56
2022-09-28T06:52:55.426Z,8.61
2022-09-28T06:55:22.392Z,8.70
2022-09-28T06:58:00.454Z,8.80
2022-09-28T07:00:28.499Z,8.89
2022-09-28T07:02:55.097Z,8.98
2022-09-28T07:05:26.706Z,9.05
2022-09-28T07:07:55.287Z,9.20
2022-09-28T07:10:27.757Z,9.40
2022-09-28T07:12:55.492Z,9.58
2022-09-28T07:15:22.988Z,9.80
2022-09-28T07:18:00.687Z,10.04
2022-09-28T07:20:30.301Z,10.24
2022-09-28T07:23:08.167Z,10.35
2022-09-28T07:25:37.276Z,10.45
2022-09-28T07:28:04.682Z,10.56
2022-09-28T07:30:35.159Z,10.68
2022-09-28T07:33:03.614Z,10.74
2022-09-28T07:35:30.494Z,10.83
2022-09-28T07:38:03.399Z,10.88
2022-09-28T07:40:50.307Z,10.93
2022-09-28T07:43:20.654Z,11.02
2022-09-28T07:45:49.042Z,11.12
2022-09-28T07:48:17.026Z,11.21
2022-09-28T07:50:57.318Z,11.21
2022-09-28T07:53:25.541Z,11.21
2022-09-28T07:55:56.578Z,11.23
2022-09-28T07:58:23.375Z,11.35
2022-09-28T08:00:50.940Z,11.45
2022-09-28T08:03:19.101Z,11.52
2022-09-28T08:05:46.870Z,11.41
2022-09-28T08:08:13.978Z,11.52
2022-09-28T08:10:46.500Z,11.55
2022-09-28T08:13:15.269Z,11.70
2022-09-28T08:15:42.634Z,11.79
2022-09-28T08:18:10.287Z,11.94
2022-09-28T08:20:55.694Z,12.04
2022-09-28T08:23:23.283Z,12.18
2022-09-28T08:25:52.583Z,12.15
2022-09-28T08:28:19.861Z,12.18
2022-09-28T08:30:47.644Z,12.19
2022-09-28T08:33:16.061Z,12.29
2022-09-28T08:35:42.755Z,12.35
2022-09-28T08:38:09.695Z,12.48
2022-09-28T08:41:04.406Z,12.69
2022-09-28T08:44:25.565Z,12.74
2022-09-28T08:47:06.350Z,12.85
2022-09-28T08:49:42.847Z,13.00
2022-09-28T08:52:24.843Z,13.00
2022-09-28T08:55:00.593Z,13.06
2022-09-28T08:57:45.271Z,13.08
2022-09-28T09:00:29.617Z,13.15
2022-09-28T09:02:56.597Z,13.09
2022-09-28T09:05:39.668Z,13.09
2022-09-28T09:08:33.267Z,13.10
2022-09-28T09:12:13.481Z,13.26
2022-09-28T09:15:20.642Z,13.40
2022-09-28T09:21:09.553Z,13.54
2022-09-28T09:23:40.062Z,13.72
2022-09-28T09:26:24.684Z,13.78
2022-09-28T10:10:54.111Z,14.80
2022-09-28T10:13:20.765Z,14.76
2022-09-28T10:15:48.976Z,14.75
2022-09-28T10:18:19.747Z,14.63
2022-09-28T10:20:47.208Z,14.80
2022-09-28T10:23:22.703Z,14.65
2022-09-28T10:25:52.301Z,14.68
2022-09-28T10:28:30.075Z,14.62
2022-09-28T10:30:56.861Z,14.57
2022-09-28T10:33:33.947Z,14.49
2022-09-28T10:36:02.021Z,14.42
2022-09-28T10:38:30.279Z,14.35
2022-09-28T10:41:01.920Z,14.47
2022-09-28T10:43:34.680Z,14.34
2022-09-28T10:46:21.202Z,14.37
2022-09-28T10:48:54.655Z,14.37
2022-09-28T10:51:40.432Z,14.44
2022-09-28T10:54:15.733Z,14.51
2022-09-28T10:56:42.897Z,14.39
2022-09-28T10:59:46.765Z,14.32
2022-09-28T11:02:36.615Z,14.13
2022-09-28T11:05:06.454Z,14.04
2022-09-28T11:07:44.238Z,14.10
2022-09-28T11:10:21.713Z,14.14
2022-09-28T11:12:49.997Z,14.27
2022-09-28T11:15:30.372Z,14.32
2022-09-28T11:18:17.152Z,14.13
2022-09-28T11:20:45.528Z,14.01
2022-09-28T11:23:30.074Z,14.17
2022-09-28T11:26:18.959Z,14.43
2022-09-28T11:28:51.639Z,14.84
2022-09-28T11:31:26.231Z,14.72
2022-09-28T11:34:03.224Z,14.40
2022-09-28T11:37:11.153Z,14.02
2022-09-28T11:40:26.610Z,14.00
2022-09-28T11:43:33.442Z,14.08
2022-09-28T11:46:54.325Z,14.20
2022-09-28T11:49:37.497Z,14.09
2022-09-28T11:52:12.597Z,14.18
2022-09-28T11:54:44.613Z,14.17
2022-09-28T11:57:18.169Z,14.18
2022-09-28T12:00:02.781Z,14.31
2022-09-28T12:02:36.284Z,14.53
2022-09-28T12:05:31.895Z,14.39
2022-09-28T12:08:21.005Z,14.38
2022-09-28T12:10:58.139Z,14.55
2022-09-28T12:13:34.298Z,14.53
2022-09-28T12:16:38.837Z,14.67
2022-09-28T12:19:13.914Z,14.80
2022-09-28T12:22:03.063Z,14.88
2022-09-28T12:24:44.158Z,14.75
2022-09-28T12:27:40.481Z,14.58
2022-09-28T12:30:28.014Z,14.73
2022-09-28T12:33:18.046Z,14.75
2022-09-28T12:36:40.421Z,14.79
2022-09-28T12:39:30.708Z,14.89
2022-09-28T12:42:35.881Z,14.97
2022-09-28T12:45:27.235Z,15.08
2022-09-28T12:48:31.225Z,15.17
2022-09-28T12:51:43.602Z,15.27
2022-09-28T12:57:58.689Z,15.00
2022-09-28T13:00:37.573Z,15.02
2022-09-28T13:12:40.698Z,14.89
2022-09-28T13:15:52.163Z,14.92
2022-09-28T13:18:47.766Z,14.83
2022-09-28T13:21:34.382Z,14.72
2022-09-28T13:24:20.938Z,14.71
2022-09-28T13:26:53.162Z,14.71
2022-09-28T13:29:21.280Z,14.62
2022-09-28T13:31:51.904Z,14.57
2022-09-28T13:34:25.028Z,14.48
2022-09-28T13:37:20.593Z,14.47
2022-09-28T13:40:05.972Z,14.35
2022-09-28T13:43:19.578Z,14.19
2022-09-28T13:45:53.865Z,14.05
2022-09-28T13:48:26.992Z,14.00
2022-09-28T13:51:43.855Z,13.91
2022-09-28T13:55:05.431Z,13.83
2022-09-28T13:58:01.565Z,13.79
2022-09-28T14:01:06.380Z,13.71
2022-09-28T14:04:12.929Z,13.53
2022-09-28T14:06:53.520Z,13.48
2022-09-28T14:09:26.912Z,13.41
2022-09-28T14:12:01.931Z,13.40
2022-09-28T14:14:50.465Z,13.53
2022-09-28T14:17:43.297Z,13.56
2022-09-28T14:20:13.212Z,13.49
2022-09-28T14:23:14.826Z,13.48
2022-09-28T14:25:45.374Z,13.48
2022-09-28T14:29:13.457Z,13.42
2022-09-28T14:31:43.659Z,13.30
2022-09-28T14:34:25.930Z,13.16
2022-09-28T14:37:11.251Z,13.07
2022-09-28T14:39:57.656Z,13.04
2022-09-28T14:42:26.166Z,12.81
2022-09-28T14:45:21.382Z,12.72
2022-09-28T14:48:15.300Z,12.65
2022-09-28T14:50:42.518Z,12.71
2022-09-28T14:53:22.047Z,12.69
2022-09-28T14:55:57.752Z,12.64
2022-09-28T14:58:27.560Z,12.56
2022-09-28T15:01:01.183Z,12.54
2022-09-28T15:03:32.756Z,12.61
2022-09-28T15:05:59.445Z,12.64
2022-09-28T15:08:37.350Z,12.61
2022-09-28T15:11:04.541Z,12.50
2022-09-28T15:13:32.042Z,12.45
2022-09-28T15:16:18.147Z,12.43
2022-09-28T15:19:10.476Z,12.37
2022-09-28T15:21:40.220Z,12.32
2022-09-28T15:24:28.098Z,12.28
2022-09-28T15:26:55.204Z,12.29
2022-09-28T15:29:23.056Z,12.27
2022-09-28T15:31:54.125Z,12.22
2022-09-28T15:34:47.839Z,12.17
2022-09-28T15:37:17.090Z,12.14
2022-09-28T15:39:48.335Z,12.20
2022-09-28T15:42:16.995Z,12.19
2022-09-28T15:45:01.251Z,12.15
2022-09-28T15:47:29.626Z,12.10
2022-09-28T15:50:09.264Z,11.96
2022-09-28T15:52:42.857Z,11.96
2022-09-28T15:55:34.867Z,12.01
2022-09-28T15:58:22.300Z,11.93
2022-09-28T16:00:51.103Z,11.90
2022-09-28T16:03:23.526Z,11.89
2022-09-28T16:06:19.149Z,11.82
2022-09-28T16:08:46.201Z,11.79
2022-09-28T16:11:27.742Z,11.83
2022-09-28T16:14:06.278Z,11.82
2022-09-28T16:16:46.539Z,11.88
2022-09-28T16:19:25.705Z,11.92
2022-09-28T16:21:55.841Z,11.87
2022-09-28T16:24:37.110Z,11.89
2022-09-28T16:27:40.251Z,11.85
2022-09-28T16:30:27.271Z,11.82
2022-09-28T16:33:03.878Z,11.81
2022-09-28T16:36:03.423Z,11.81
2022-09-28T16:38:31.851Z,11.80
2022-09-28T16:41:02.761Z,11.77
2022-09-28T16:43:31.925Z,11.86
2022-09-28T16:46:21.298Z,11.82
2022-09-28T16:48:50.179Z,11.84
2022-09-28T16:51:19.532Z,11.81
2022-09-28T16:54:05.280Z,11.78
2022-09-28T16:56:36.590Z,11.70
2022-09-28T16:59:04.434Z,11.64
2022-09-28T17:01:31.440Z,11.69
2022-09-28T17:03:58.145Z,11.67
2022-09-28T17:06:25.412Z,11.69
2022-09-28T17:08:52.689Z,11.70
2022-09-28T17:11:24.607Z,11.71
2022-09-28T17:13:52.299Z,11.69
2022-09-28T17:16:42.670Z,11.70
2022-09-28T17:19:24.436Z,11.70
2022-09-28T17:21:52.259Z,11.66
2022-09-28T17:24:20.287Z,11.67
2022-09-28T17:26:50.001Z,11.61
2022-09-28T17:29:17.054Z,11.62
2022-09-28T17:31:44.991Z,11.62
2022-09-28T17:34:13.315Z,11.56
2022-09-28T17:36:42.534Z,11.47
2022-09-28T17:39:13.613Z,11.47
2022-09-28T17:41:40.781Z,11.48
2022-09-28T17:44:07.958Z,11.47
2022-09-28T17:46:37.398Z,11.44
2022-09-28T17:49:06.199Z,11.45
2022-09-28T17:51:37.605Z,11.48
2022-09-28T17:54:06.539Z,11.42
2022-09-28T17:56:34.273Z,11.44
2022-09-28T17:59:04.899Z,11.39
2022-09-28T18:01:34.411Z,11.39
2022-09-28T18:04:03.575Z,11.36
2022-09-28T18:06:31.961Z,11.32
2022-09-28T18:08:58.740Z,11.31
2022-09-28T18:11:25.530Z,11.32
2022-09-28T18:13:52.350Z,11.32
2022-09-28T18:16:19.556Z,11.27
2022-09-28T18:18:47.419Z,11.28
2022-09-28T18:21:14.328Z,11.20
2022-09-28T18:23:41.238Z,11.17
2022-09-28T18:26:12.321Z,11.22
2022-09-28T18:28:39.332Z,11.21
2022-09-28T18:31:10.838Z,11.20
2022-09-28T18:33:38.098Z,11.22
2022-09-28T18:36:06.296Z,11.14
2022-09-28T18:38:40.774Z,11.14
2022-09-28T18:41:08.520Z,11.09
2022-09-28T18:43:36.479Z,11.07
2022-09-28T18:46:07.493Z,11.09
2022-09-28T18:48:34.149Z,11.13
2022-09-28T18:51:00.749Z,11.14
2022-09-28T18:53:28.325Z,11.08
2022-09-28T18:55:55.727Z,11.09
2022-09-28T18:58:22.586Z,11.08
2022-09-28T19:00:49.164Z,11.06
2022-09-28T19:03:15.860Z,11.05
2022-09-28T19:05:43.453Z,11.09
2022-09-28T19:08:10.388Z,11.01
2022-09-28T19:10:37.089Z,10.96
2022-09-28T19:13:03.642Z,10.91
2022-09-28T19:15:30.459Z,10.89
2022-09-28T19:17:57.148Z,10.87
2022-09-28T19:20:23.820Z,10.88
2022-09-28T19:22:50.660Z,10.85
2022-09-28T19:25:17.452Z,10.90
2022-09-28T19:27:44.235Z,10.87
2022-09-28T19:30:11.622Z,10.89
2022-09-28T19:32:38.963Z,10.88
2022-09-28T19:35:05.856Z,10.85
2022-09-28T19:37:35.431Z,10.86
2022-09-28T19:40:05.796Z,10.85
2022-09-28T19:42:32.546Z,10.81
2022-09-28T19:44:59.121Z,10.82
2022-09-28T19:47:26.024Z,10.82
2022-09-28T19:49:52.802Z,10.87
2022-09-28T19:52:19.564Z,10.83
2022-09-28T19:54:57.156Z,10.77
2022-09-28T19:57:27.532Z,10.76
2022-09-28T19:59:59.258Z,10.77
2022-09-28T20:02:29.029Z,10.75
2022-09-28T20:04:55.689Z,10.67
2022-09-28T20:07:22.263Z,10.62
2022-09-28T20:09:48.871Z,10.58
2022-09-28T20:12:15.725Z,10.53
2022-09-28T20:14:42.524Z,10.49
2022-09-28T20:17:09.692Z,10.47
2022-09-28T20:19:36.377Z,10.49
2022-09-28T20:22:03.543Z,10.50
2022-09-28T20:24:31.504Z,10.48
2022-09-28T20:26:58.588Z,10.49
2022-09-28T20:29:25.291Z,10.52
2022-09-28T20:31:52.214Z,10.51
2022-09-28T20:34:18.953Z,10.54
2022-09-28T20:36:45.544Z,10.53
2022-09-28T20:39:12.366Z,10.48
2022-09-28T20:41:39.215Z,10.42
2022-09-28T20:44:06.813Z,10.49
2022-09-28T20:46:37.571Z,10.50
2022-09-28T20:49:05.134Z,10.45
2022-09-28T20:51:32.348Z,10.43
2022-09-28T20:53:59.433Z,10.43
2022-09-28T20:56:34.503Z,10.48
2022-09-28T20:59:01.103Z,10.51
2022-09-28T21:01:30.058Z,10.50
2022-09-28T21:03:59.490Z,10.50
2022-09-28T21:06:31.314Z,10.55
2022-09-28T21:08:58.338Z,10.53
2022-09-28T21:11:26.942Z,10.53
2022-09-28T21:13:55.467Z,10.55
2022-09-28T21:16:22.219Z,10.55
2022-09-28T21:18:48.954Z,10.59
2022-09-28T21:21:18.193Z,10.53
2022-09-28T21:23:45.375Z,10.63
2022-09-28T21:26:24.411Z,10.56
2022-09-28T21:28:54.531Z,10.53
2022-09-28T21:31:28.240Z,10.48
2022-09-28T21:33:56.284Z,10.41
2022-09-28T21:36:23.087Z,10.36
2022-09-28T21:38:49.618Z,10.38
2022-09-28T21:41:16.481Z,10.34
2022-09-28T21:43:43.103Z,10.20
2022-09-28T21:46:10.116Z,10.13
2022-09-28T21:48:37.192Z,10.18
2022-09-28T21:51:06.475Z,10.17
2022-09-28T21:53:35.333Z,10.20
2022-09-28T21:56:03.158Z,10.18
2022-09-28T21:58:33.543Z,10.21
2022-09-28T22:01:15.566Z,10.16
2022-09-28T22:03:44.350Z,10.12
2022-09-28T22:06:11.525Z,10.08
2022-09-28T22:08:38.740Z,10.04
2022-09-28T22:11:11.320Z,9.91
2022-09-28T22:13:44.130Z,9.91
2022-09-28T22:16:12.199Z,9.91
2022-09-28T22:18:39.494Z,9.93
2022-09-28T22:21:10.078Z,9.84
2022-09-28T22:23:38.053Z,9.68
2022-09-28T22:26:12.948Z,9.65
2022-09-28T22:28:48.350Z,9.63
2022-09-28T22:31:15.938Z,9.60
2022-09-28T22:33:42.819Z,9.60
2022-09-28T22:36:09.849Z,9.50
2022-09-28T22:38:36.705Z,9.44
2022-09-28T22:41:04.030Z,9.47
2022-09-28T22:43:31.315Z,9.43
2022-09-28T22:46:06.089Z,9.47
2022-09-28T22:48:33.442Z,9.45
2022-09-28T22:51:00.407Z,9.38
2022-09-28T22:53:28.430Z,9.39
2022-09-28T22:55:55.917Z,9.33
2022-09-28T22:58:23.535Z,9.39
2022-09-28T23:00:50.121Z,9.45
2022-09-28T23:03:17.751Z,9.45
2022-09-28T23:05:54.822Z,9.44
2022-09-28T23:08:22.599Z,9.49
2022-09-28T23:10:49.898Z,9.58
2022-09-28T23:13:16.679Z,9.53
2022-09-28T23:15:43.429Z,9.53
2022-09-28T23:18:10.051Z,9.63
2022-09-28T23:20:36.663Z,9.60
2022-09-28T23:23:03.475Z,9.64
2022-09-28T23:25:29.990Z,9.57
2022-09-28T23:27:56.858Z,9.57
2022-09-28T23:30:23.873Z,9.60
2022-09-28T23:32:53.173Z,9.58
2022-09-28T23:35:19.950Z,9.59
2022-09-28T23:37:50.522Z,9.56
2022-09-28T23:40:17.685Z,9.55
2022-09-28T23:42:44.313Z,9.56
2022-09-28T23:45:11.147Z,9.57
2022-09-28T23:47:38.170Z,9.59
2022-09-28T23:50:05.788Z,9.57
2022-09-28T23:52:32.727Z,9.57
2022-09-28T23:54:59.279Z,9.56
2022-09-28T23:57:25.904Z,9.62
2022-09-28T23:59:52.676Z,9.60
